createdAt,value
2019-05-06T07:47:03.607Z,97.7
2019-05-06T07:52:06.202Z,96.6
2019-05-06T08:02:10.544Z,92.1
2019-05-06T08:07:13.215Z,89.8
2019-05-06T08:12:15.745Z,90.3
2019-05-06T08:17:17.911Z,84.2
2019-05-06T08:22:22.553Z,84.5
2019-05-06T08:27:23.289Z,81.4
2019-05-06T08:32:25.131Z,74.6
2019-05-06T08:37:27.752Z,74.6
2019-05-06T08:42:30.077Z,75
2019-05-06T08:47:32.946Z,70.7
2019-05-06T08:52:35.038Z,65.4
2019-05-06T08:57:37.473Z,63.2
2019-05-06T09:02:42.032Z,63.1
2019-05-06T09:07:42.972Z,64
2019-05-06T09:12:45.312Z,64
2019-05-06T09:17:47.145Z,62.1
2019-05-06T09:22:49.552Z,60
2019-05-06T09:27:52.633Z,60.6
2019-05-06T09:32:54.784Z,60.3
2019-05-06T09:37:56.867Z,61.2
2019-05-06T09:48:03.482Z,64.2
2019-05-06T09:53:04.223Z,63.7
2019-05-06T09:58:06.950Z,59.2
2019-05-06T10:08:12.357Z,58.8
2019-05-06T10:13:14.132Z,60.6
2019-05-06T10:18:16.889Z,62.2
2019-05-06T10:23:18.827Z,62.6
2019-05-06T10:28:23.238Z,63
2019-05-06T10:33:23.909Z,62.6
2019-05-06T10:38:26.129Z,58.8
2019-05-06T10:43:28.626Z,57.3
2019-05-06T10:48:31.260Z,57.7
2019-05-06T10:58:35.942Z,59
2019-05-06T11:03:38.337Z,60.3
2019-05-06T11:08:42.025Z,61.2
2019-05-06T11:13:43.221Z,57.5
2019-05-06T11:18:45.723Z,54
2019-05-06T11:23:48.095Z,52.9
2019-05-06T11:28:52.007Z,51.9
2019-05-06T11:33:53.089Z,49.7
2019-05-06T11:38:55.653Z,47.9
2019-05-06T11:43:59.389Z,48.7
2019-05-06T11:49:00.359Z,47.9
2019-05-06T11:54:07.634Z,48.3
2019-05-06T11:59:05.185Z,49.2
2019-05-06T12:04:07.703Z,49.5
2019-05-06T12:09:15.836Z,49.5
2019-05-06T12:14:12.903Z,49.9
2019-05-06T12:19:14.975Z,47.6
2019-05-06T12:24:17.405Z,47.9
2019-05-06T12:29:19.897Z,48.5
2019-05-06T12:39:24.736Z,47.5
2019-05-06T12:44:27.507Z,46.8
2019-05-06T12:49:29.581Z,43.8
2019-05-06T12:54:33.463Z,44.8
2019-05-06T12:59:34.466Z,45.3
2019-05-06T13:04:54.433Z,45.5
2019-05-06T13:09:42.279Z,43.5
2019-05-06T13:14:43.052Z,43.8
2019-05-06T13:19:44.408Z,44.8
2019-05-06T13:24:46.814Z,42.9
2019-05-06T13:29:49.287Z,43.8
2019-05-06T13:34:52.584Z,42.5
2019-05-06T13:39:54.236Z,43.9
2019-05-06T13:44:56.474Z,42.1
2019-05-06T13:49:58.899Z,43.2
2019-05-06T13:55:02.506Z,43.4
2019-05-06T14:00:03.804Z,43.3
2019-05-06T14:05:06.259Z,43.6
2019-05-06T14:10:08.666Z,44.5
2019-05-06T14:15:12.422Z,45.1
2019-05-06T14:20:13.512Z,45.4
2019-05-06T14:25:15.976Z,45.8
2019-05-06T14:30:18.426Z,45.7
2019-05-06T14:35:23.028Z,45.8
2019-05-06T14:45:25.990Z,46.3
2019-05-06T14:50:32.318Z,46.1
2019-05-06T14:55:32.705Z,46.5
2019-05-06T15:00:33.070Z,46.4
2019-05-06T15:05:36.255Z,44.6
2019-05-06T15:10:38.176Z,42.9
2019-05-06T15:15:40.337Z,42.7
2019-05-06T15:20:43.246Z,43.9
2019-05-06T15:30:47.681Z,44.1
2019-05-06T15:35:52.310Z,44.5
2019-05-06T15:40:52.746Z,45.4
2019-05-06T15:45:55.002Z,44.7
2019-05-06T15:50:57.466Z,43.8
2019-05-06T15:56:02.098Z,43.7
2019-05-06T16:06:04.773Z,43.5
2019-05-06T16:11:07.373Z,42.7
2019-05-06T16:16:09.704Z,43
2019-05-06T16:26:14.757Z,42.2
2019-05-06T16:31:16.951Z,42.8
2019-05-06T16:36:19.427Z,43.4
2019-05-06T16:41:22.504Z,42.8
2019-05-06T16:46:24.287Z,42.7
2019-05-06T16:51:26.709Z,42.7
2019-05-06T16:56:33.239Z,43.1
2019-05-06T17:01:33.965Z,42.8
2019-05-06T17:06:34.026Z,43.3
2019-05-06T17:11:36.524Z,44
2019-05-06T17:16:38.950Z,44.6
2019-05-06T17:21:42.257Z,44.7
2019-05-06T17:26:43.764Z,45
2019-05-06T17:31:46.221Z,45.6
2019-05-06T17:36:48.656Z,45.8
2019-05-06T17:41:52.183Z,46
2019-05-06T17:46:53.817Z,46.2
2019-05-06T17:51:55.993Z,46.3
2019-05-06T17:56:58.450Z,46.2
2019-05-06T18:02:00.955Z,46.5
2019-05-06T18:07:03.388Z,46.6
2019-05-06T18:12:05.908Z,46.8
2019-05-06T18:17:08.184Z,46.8
2019-05-06T18:27:13.474Z,47
2019-05-06T18:32:15.549Z,47.2
2019-05-06T18:37:18.017Z,47.5
2019-05-06T18:42:23.500Z,48
2019-05-06T18:47:22.933Z,48.4
2019-05-06T18:52:25.308Z,48.8
2019-05-06T18:57:27.692Z,49.3
2019-05-06T19:02:30.190Z,49.5
2019-05-06T19:12:40.394Z,49.9
2019-05-06T19:17:37.486Z,50.1
2019-05-06T19:22:40.083Z,50.1
2019-05-06T19:27:42.652Z,50.3
